createdAt,value
2022-11-22T00:01:08.786Z,110.60
2022-11-22T00:03:35.227Z,146.63
2022-11-22T00:06:01.757Z,112.20
2022-11-22T00:08:28.780Z,115.60
2022-11-22T00:10:55.337Z,115.63
2022-11-22T00:13:22.023Z,112.17
2022-11-22T00:15:58.695Z,100.10
2022-11-22T00:18:25.134Z,101.73
2022-11-22T00:20:51.614Z,92.90
2022-11-22T00:23:18.091Z,99.50
2022-11-22T00:25:45.182Z,91.20
2022-11-22T00:28:11.682Z,98.63
2022-11-22T00:30:38.159Z,85.90
2022-11-22T00:33:04.650Z,91.13
2022-11-22T00:35:31.086Z,84.13
2022-11-22T00:37:57.544Z,87.50
2022-11-22T00:40:23.969Z,94.93
2022-11-22T00:42:50.383Z,89.10
2022-11-22T00:45:16.920Z,97.30
2022-11-22T00:47:43.362Z,94.93
2022-11-22T00:50:09.828Z,95.70
2022-11-22T00:52:36.274Z,95.70
2022-11-22T00:55:02.774Z,103.47
2022-11-22T00:57:29.208Z,96.70
2022-11-22T00:59:55.720Z,87.20
2022-11-22T01:02:22.321Z,79.53
2022-11-22T01:04:48.960Z,93.63
2022-11-22T01:07:15.466Z,82.73
2022-11-22T01:09:41.909Z,107.60
2022-11-22T01:12:08.428Z,94.53
2022-11-22T01:14:34.894Z,131.50
2022-11-22T01:17:01.303Z,135.67
2022-11-22T01:19:27.944Z,179.27
2022-11-22T01:21:54.578Z,120.13
2022-11-22T01:24:21.003Z,139.17
2022-11-22T01:26:47.495Z,93.27
2022-11-22T01:29:14.144Z,72.97
2022-11-22T01:31:40.549Z,93.53
2022-11-22T01:34:07.052Z,129.80
2022-11-22T01:36:33.521Z,128.07
2022-11-22T01:38:59.995Z,148.37
2022-11-22T01:41:26.525Z,124.13
2022-11-22T01:43:52.962Z,146.07
2022-11-22T01:46:25.447Z,84.43
2022-11-22T01:49:18.295Z,84.57
2022-11-22T01:51:45.824Z,66.77
2022-11-22T01:54:16.610Z,77.23
2022-11-22T01:56:43.688Z,84.67
2022-11-22T01:59:11.318Z,75.67
2022-11-22T02:01:37.826Z,114.70
2022-11-22T02:04:04.477Z,99.93
2022-11-22T02:06:39.345Z,114.27
2022-11-22T02:09:07.704Z,112.53
2022-11-22T02:11:35.160Z,64.07
2022-11-22T02:14:01.713Z,125.63
2022-11-22T02:16:28.150Z,107.87
2022-11-22T02:18:54.745Z,131.27
2022-11-22T02:21:21.299Z,94.20
2022-11-22T02:23:50.717Z,81.47
2022-11-22T02:26:17.171Z,134.17
2022-11-22T02:28:43.700Z,109.33
2022-11-22T02:31:12.242Z,127.10
2022-11-22T02:33:38.691Z,106.00
2022-11-22T02:36:05.325Z,103.40
2022-11-22T02:38:33.170Z,127.87
2022-11-22T02:41:11.749Z,144.33
2022-11-22T02:43:39.065Z,112.47
2022-11-22T02:46:06.385Z,116.27
2022-11-22T02:48:32.926Z,129.90
2022-11-22T02:50:59.362Z,124.23
2022-11-22T02:53:25.908Z,99.07
2022-11-22T02:55:52.319Z,131.13
2022-11-22T02:58:18.770Z,142.03
2022-11-22T03:00:45.237Z,163.33
2022-11-22T03:03:11.679Z,135.77
2022-11-22T03:05:38.134Z,145.07
2022-11-22T03:08:04.570Z,122.83
2022-11-22T03:10:31.058Z,171.70
2022-11-22T03:12:57.862Z,138.73
2022-11-22T03:15:24.313Z,123.67
2022-11-22T03:17:55.127Z,133.67
2022-11-22T03:20:21.605Z,99.83
2022-11-22T03:22:48.023Z,127.83
2022-11-22T03:25:14.496Z,111.67
2022-11-22T03:27:40.909Z,86.40
2022-11-22T03:30:07.654Z,91.60
2022-11-22T03:32:34.187Z,105.57
2022-11-22T03:35:00.624Z,103.20
2022-11-22T03:37:27.074Z,66.43
2022-11-22T03:39:53.496Z,92.07
2022-11-22T03:42:21.951Z,95.40
2022-11-22T03:44:48.618Z,131.70
2022-11-22T03:47:15.050Z,78.83
2022-11-22T03:49:42.351Z,86.70
2022-11-22T03:52:08.848Z,113.13
2022-11-22T03:54:35.468Z,107.00
2022-11-22T03:57:01.980Z,124.77
2022-11-22T03:59:28.657Z,119.13
2022-11-22T04:01:55.274Z,124.83
2022-11-22T04:04:21.791Z,105.40
2022-11-22T04:06:48.227Z,101.20
2022-11-22T04:09:14.718Z,80.07
2022-11-22T04:11:41.198Z,93.27
2022-11-22T04:14:28.319Z,114.50
2022-11-22T04:16:54.772Z,89.73
2022-11-22T04:19:21.222Z,116.47
2022-11-22T04:21:47.679Z,98.47
2022-11-22T04:24:32.813Z,126.63
2022-11-22T04:26:59.302Z,84.93
2022-11-22T04:29:25.808Z,95.07
2022-11-22T04:32:11.045Z,90.87
2022-11-22T04:34:37.562Z,83.40
2022-11-22T04:37:04.110Z,90.17
2022-11-22T04:39:30.887Z,81.50
2022-11-22T04:42:16.363Z,77.77
2022-11-22T04:44:42.974Z,102.30
2022-11-22T04:47:09.910Z,90.23
2022-11-22T04:49:36.357Z,115.53
2022-11-22T04:52:21.529Z,118.70
2022-11-22T04:54:48.035Z,141.37
2022-11-22T04:57:14.491Z,123.30
2022-11-22T04:59:40.954Z,107.00
2022-11-22T05:02:07.461Z,163.47
2022-11-22T05:04:34.012Z,123.83
2022-11-22T05:07:00.515Z,82.27
2022-11-22T05:09:27.285Z,134.07
2022-11-22T05:11:53.894Z,105.60
2022-11-22T05:14:20.301Z,106.33
2022-11-22T05:16:46.733Z,91.87
2022-11-22T05:19:13.165Z,87.00
2022-11-22T05:21:39.598Z,93.20
2022-11-22T05:24:06.245Z,90.80
2022-11-22T05:26:33.516Z,89.93
2022-11-22T05:29:03.179Z,90.60
2022-11-22T05:31:29.685Z,96.57
2022-11-22T05:33:56.495Z,90.43
2022-11-22T05:36:23.017Z,85.50
2022-11-22T05:38:49.632Z,83.83
2022-11-22T05:41:16.215Z,82.83
2022-11-22T05:43:42.687Z,93.10
2022-11-22T05:46:19.585Z,88.23
2022-11-22T05:48:50.188Z,78.27
2022-11-22T05:51:17.398Z,84.10
2022-11-22T05:53:43.943Z,86.33
2022-11-22T05:56:14.231Z,81.43
2022-11-22T05:58:40.715Z,83.60
2022-11-22T06:01:14.803Z,83.80
2022-11-22T06:03:41.324Z,86.40
2022-11-22T06:06:07.992Z,81.53
2022-11-22T06:08:35.338Z,84.47
2022-11-22T06:11:08.730Z,88.17
2022-11-22T06:13:35.819Z,90.77
2022-11-22T06:16:02.423Z,89.30
2022-11-22T06:18:28.891Z,89.60
2022-11-22T06:21:02.498Z,87.40
2022-11-22T06:23:29.045Z,85.63
2022-11-22T06:26:02.503Z,92.87
2022-11-22T06:28:29.075Z,91.13
2022-11-22T06:31:00.460Z,85.37
2022-11-22T06:33:26.884Z,91.90
2022-11-22T06:35:53.300Z,87.77
2022-11-22T06:38:19.735Z,90.07
2022-11-22T06:40:46.323Z,86.10
2022-11-22T06:43:12.815Z,87.30
2022-11-22T06:45:39.255Z,83.47
2022-11-22T06:48:05.951Z,79.07
2022-11-22T06:50:32.413Z,80.47
2022-11-22T06:52:58.964Z,82.67
2022-11-22T06:55:48.952Z,77.57
2022-11-22T06:58:11.835Z,82.60
2022-11-22T07:00:38.540Z,84.23
2022-11-22T07:03:04.936Z,85.13
2022-11-22T07:05:31.500Z,75.83
2022-11-22T07:08:05.436Z,76.77
2022-11-22T07:10:33.230Z,81.13
2022-11-22T07:12:59.660Z,82.53
2022-11-22T07:15:26.088Z,82.33
2022-11-22T07:17:52.570Z,84.13
2022-11-22T07:20:19.010Z,82.57
2022-11-22T07:22:47.283Z,82.10
2022-11-22T07:25:13.848Z,80.87
2022-11-22T07:27:40.271Z,88.10
2022-11-22T07:30:07.138Z,87.70
2022-11-22T07:32:33.586Z,90.00
2022-11-22T07:35:00.182Z,88.80
2022-11-22T07:37:26.762Z,79.47
2022-11-22T07:39:54.257Z,93.40
2022-11-22T07:42:25.791Z,86.83
2022-11-22T07:44:52.849Z,90.77
2022-11-22T07:47:22.882Z,84.07
2022-11-22T07:49:49.855Z,89.37
2022-11-22T07:52:16.441Z,84.47
2022-11-22T07:54:42.939Z,80.73
2022-11-22T07:57:09.429Z,84.23
2022-11-22T07:59:35.860Z,82.33
2022-11-22T08:02:03.043Z,82.50
2022-11-22T08:04:29.591Z,73.13
2022-11-22T08:06:56.122Z,81.00
2022-11-22T08:09:22.569Z,71.57
2022-11-22T08:11:49.058Z,81.37
2022-11-22T08:14:15.593Z,79.13
2022-11-22T08:16:42.156Z,84.67
2022-11-22T08:19:08.680Z,79.10
2022-11-22T08:21:35.795Z,81.17
2022-11-22T08:24:02.964Z,76.33
2022-11-22T08:26:29.705Z,76.80
2022-11-22T08:28:56.251Z,77.50
2022-11-22T08:31:22.774Z,76.67
2022-11-22T08:33:52.286Z,70.27
2022-11-22T08:36:18.715Z,71.70
2022-11-22T08:38:45.320Z,69.10
2022-11-22T08:41:13.948Z,68.60
2022-11-22T08:43:41.787Z,71.83
2022-11-22T08:46:08.500Z,66.87
2022-11-22T08:48:35.440Z,72.87
2022-11-22T08:51:02.789Z,73.20
2022-11-22T08:53:30.035Z,70.27
2022-11-22T08:55:56.541Z,75.10
2022-11-22T08:58:23.203Z,75.07
2022-11-22T09:00:49.643Z,72.43
2022-11-22T09:03:16.449Z,67.57
2022-11-22T09:08:32.650Z,64.33
2022-11-22T09:11:02.892Z,66.60
2022-11-22T09:13:29.456Z,64.70
2022-11-22T09:15:56.242Z,55.33
2022-11-22T09:18:22.749Z,56.07
2022-11-22T09:20:49.175Z,50.57
2022-11-22T09:23:15.613Z,45.27
2022-11-22T09:25:42.046Z,38.33
2022-11-22T09:28:08.598Z,40.03
2022-11-22T09:30:35.082Z,38.50
2022-11-22T09:33:01.575Z,33.47
2022-11-22T09:35:28.028Z,37.37
2022-11-22T09:37:54.514Z,31.57
2022-11-22T09:40:21.156Z,28.07
2022-11-22T09:42:50.687Z,30.87
2022-11-22T09:45:33.487Z,31.10
2022-11-22T09:48:18.705Z,30.90
2022-11-22T09:50:51.396Z,33.33
2022-11-22T09:53:24.213Z,27.17
2022-11-22T09:55:55.059Z,24.37
2022-11-22T09:58:24.873Z,26.90
2022-11-22T10:00:52.634Z,20.03
2022-11-22T10:03:25.423Z,20.57
2022-11-22T10:05:56.469Z,21.67
2022-11-22T10:08:32.520Z,18.40
2022-11-22T10:10:59.115Z,16.77
2022-11-22T10:13:29.423Z,20.03
2022-11-22T10:16:31.510Z,16.57
2022-11-22T10:19:01.760Z,19.70
2022-11-22T10:21:28.221Z,16.80
2022-11-22T10:23:54.824Z,11.53
2022-11-22T10:26:21.347Z,13.10
2022-11-22T10:28:50.936Z,12.43
2022-11-22T10:31:17.969Z,12.40
2022-11-22T10:33:51.312Z,15.13
2022-11-22T10:36:24.019Z,10.03
2022-11-22T10:38:50.856Z,13.53
2022-11-22T10:41:36.243Z,12.97
2022-11-22T10:44:02.736Z,11.43
2022-11-22T10:46:32.340Z,11.93
2022-11-22T10:49:00.929Z,11.60
2022-11-22T10:51:30.870Z,10.00
2022-11-22T10:54:03.563Z,8.87
2022-11-22T10:56:31.904Z,11.07
2022-11-22T10:59:11.069Z,8.20
2022-11-22T11:01:56.556Z,11.40
2022-11-22T11:04:23.250Z,9.63
2022-11-22T11:07:11.108Z,13.37
2022-11-22T11:12:33.493Z,11.40
2022-11-22T11:15:01.025Z,9.43
2022-11-22T11:17:28.439Z,14.37
2022-11-22T11:19:55.144Z,12.33
2022-11-22T11:22:42.792Z,9.47
2022-11-22T11:25:27.049Z,12.90
2022-11-22T11:27:53.637Z,13.10
2022-11-22T11:30:20.109Z,13.67
2022-11-22T11:32:56.737Z,21.07
2022-11-22T11:35:24.531Z,13.40
2022-11-22T11:37:51.090Z,12.50
2022-11-22T11:40:28.450Z,9.03
2022-11-22T11:43:13.718Z,8.07
2022-11-22T11:45:40.192Z,7.33
2022-11-22T11:48:21.346Z,10.20
2022-11-22T11:50:47.806Z,9.03
2022-11-22T11:53:20.747Z,9.07
2022-11-22T11:55:47.211Z,10.03
2022-11-22T11:58:20.507Z,8.50
2022-11-22T12:00:47.003Z,11.70
2022-11-22T12:03:15.218Z,9.50
2022-11-22T12:05:41.651Z,10.50
2022-11-22T12:08:34.475Z,10.03
2022-11-22T12:11:09.111Z,8.77
2022-11-22T12:14:12.351Z,9.40
2022-11-22T12:16:33.616Z,9.20
2022-11-22T12:19:18.077Z,11.77
2022-11-22T12:22:06.998Z,7.67
2022-11-22T12:24:52.352Z,7.77
2022-11-22T12:27:21.977Z,10.03
2022-11-22T12:29:48.434Z,9.17
2022-11-22T12:32:17.054Z,10.70
2022-11-22T12:34:47.191Z,9.60
2022-11-22T12:37:28.010Z,9.10
2022-11-22T12:39:54.747Z,11.63
2022-11-22T12:42:23.420Z,15.50
2022-11-22T12:44:52.250Z,10.07
2022-11-22T12:47:20.419Z,9.80
2022-11-22T12:49:47.678Z,9.20
2022-11-22T12:52:17.274Z,10.30
2022-11-22T12:55:02.678Z,9.87
2022-11-22T12:57:33.110Z,11.33
2022-11-22T13:00:02.520Z,9.43
2022-11-22T13:02:43.315Z,11.27
2022-11-22T13:05:10.624Z,11.13
2022-11-22T13:07:37.079Z,11.60
2022-11-22T13:10:05.849Z,11.63
2022-11-22T13:12:33.633Z,12.40
2022-11-22T13:15:00.247Z,16.43
2022-11-22T13:17:27.234Z,13.83
2022-11-22T13:20:00.719Z,12.87
2022-11-22T13:22:36.097Z,12.53
2022-11-22T13:25:02.532Z,17.87
2022-11-22T13:27:30.769Z,16.13
2022-11-22T13:29:58.085Z,17.33
2022-11-22T13:32:24.585Z,15.50
2022-11-22T13:35:06.577Z,15.20
2022-11-22T13:37:39.644Z,13.67
2022-11-22T13:40:12.384Z,16.97
2022-11-22T13:42:38.859Z,15.73
2022-11-22T13:45:06.509Z,17.60
2022-11-22T13:47:39.888Z,16.20
2022-11-22T13:50:32.745Z,18.00
2022-11-22T13:52:59.191Z,19.47
2022-11-22T13:55:27.131Z,17.47
2022-11-22T13:57:53.671Z,21.53
2022-11-22T14:00:21.753Z,19.53
2022-11-22T14:02:48.230Z,16.13
2022-11-22T14:05:17.748Z,19.90
2022-11-22T14:07:44.344Z,18.73
2022-11-22T14:10:43.467Z,19.03
2022-11-22T14:13:19.077Z,21.63
2022-11-22T14:16:03.883Z,21.53
2022-11-22T14:18:40.388Z,17.13
2022-11-22T14:21:13.743Z,19.80
2022-11-22T14:23:58.560Z,19.90
2022-11-22T14:26:31.179Z,20.33
2022-11-22T14:28:58.008Z,21.13
2022-11-22T14:31:25.572Z,20.23
2022-11-22T14:34:10.740Z,19.63
2022-11-22T14:36:37.217Z,19.53
2022-11-22T14:39:23.708Z,20.83
2022-11-22T14:41:50.842Z,18.90
2022-11-22T14:44:21.246Z,17.80
2022-11-22T14:47:17.172Z,24.80
2022-11-22T14:49:47.022Z,23.97
2022-11-22T14:52:18.318Z,22.43
2022-11-22T14:54:45.843Z,24.97
2022-11-22T14:57:14.442Z,24.07
2022-11-22T14:59:43.978Z,26.97
2022-11-22T15:02:28.264Z,26.07
2022-11-22T15:09:10.683Z,25.40
2022-11-22T15:09:15.567Z,27.07
2022-11-22T15:11:00.864Z,19.83
2022-11-22T15:13:29.990Z,27.23
2022-11-22T15:58:59.834Z,24.93
2022-11-22T16:01:26.531Z,28.77
2022-11-22T16:03:56.636Z,27.77
2022-11-22T16:06:24.047Z,26.63
2022-11-22T16:08:51.556Z,29.00
2022-11-22T16:11:20.174Z,26.60
2022-11-22T16:13:46.677Z,30.03
2022-11-22T16:16:13.281Z,36.37
2022-11-22T16:18:40.034Z,42.70
2022-11-22T16:21:07.238Z,43.57
2022-11-22T16:23:35.229Z,48.00
2022-11-22T16:26:20.709Z,54.30
2022-11-22T16:28:47.565Z,52.73
2022-11-22T16:31:23.924Z,58.57
2022-11-22T16:33:50.723Z,42.03
2022-11-22T16:36:17.707Z,41.97
2022-11-22T16:38:44.374Z,34.60
2022-11-22T16:41:17.162Z,32.53
2022-11-22T16:43:43.660Z,32.70
2022-11-22T16:46:12.797Z,28.87
2022-11-22T16:48:39.384Z,28.10
2022-11-22T16:51:06.633Z,27.70
2022-11-22T16:53:43.635Z,22.13
2022-11-22T16:56:20.156Z,25.87
2022-11-22T16:58:47.193Z,26.03
2022-11-22T17:01:16.024Z,25.80
2022-11-22T17:03:42.813Z,26.30
2022-11-22T17:06:12.291Z,22.90
2022-11-22T17:08:39.075Z,22.97
2022-11-22T17:11:05.724Z,25.27
2022-11-22T17:13:32.311Z,25.63
2022-11-22T17:15:58.793Z,23.67
2022-11-22T17:18:25.427Z,26.77
2022-11-22T17:20:51.969Z,24.37
2022-11-22T17:23:25.726Z,23.93
2022-11-22T17:25:52.314Z,22.23
2022-11-22T17:28:18.834Z,21.73
2022-11-22T17:30:45.533Z,23.53
2022-11-22T17:33:12.173Z,24.17
2022-11-22T17:35:38.826Z,20.77
2022-11-22T17:38:05.957Z,21.10
2022-11-22T17:40:32.431Z,21.90
2022-11-22T17:42:59.082Z,21.27
2022-11-22T17:45:26.307Z,25.33
2022-11-22T17:47:54.162Z,24.40
2022-11-22T17:50:20.732Z,28.30
2022-11-22T17:52:47.322Z,29.37
2022-11-22T17:55:14.596Z,30.77
2022-11-22T17:57:41.418Z,30.20
2022-11-22T18:00:08.423Z,36.00
2022-11-22T18:02:35.017Z,33.73
2022-11-22T18:05:04.619Z,33.63
2022-11-22T18:07:31.271Z,34.77
2022-11-22T18:09:57.794Z,35.20
2022-11-22T18:12:24.202Z,33.87
2022-11-22T18:14:50.856Z,32.77
2022-11-22T18:17:17.566Z,29.00
2022-11-22T18:19:44.075Z,29.87
2022-11-22T18:22:10.604Z,30.10
2022-11-22T18:24:37.094Z,27.13
2022-11-22T18:27:03.570Z,29.80
2022-11-22T18:29:45.351Z,28.83
2022-11-22T18:32:11.864Z,35.33
2022-11-22T18:34:38.465Z,28.63
2022-11-22T18:37:05.272Z,28.13
2022-11-22T18:39:36.834Z,26.47
2022-11-22T18:42:14.054Z,34.27
2022-11-22T18:44:40.604Z,35.53
2022-11-22T18:47:07.102Z,46.67
2022-11-22T18:49:33.899Z,44.87
2022-11-22T18:52:00.605Z,50.37
2022-11-22T18:54:27.070Z,49.40
2022-11-22T18:56:53.519Z,50.57
2022-11-22T18:59:19.971Z,48.17
2022-11-22T19:01:46.466Z,48.40
2022-11-22T19:04:14.202Z,48.77
2022-11-22T19:06:43.706Z,50.73
2022-11-22T19:09:10.252Z,44.60
2022-11-22T19:11:36.837Z,45.83
2022-11-22T19:14:03.268Z,44.57
2022-11-22T19:16:30.554Z,43.50
2022-11-22T19:18:57.614Z,45.47
2022-11-22T19:21:25.061Z,42.33
2022-11-22T19:23:51.648Z,42.63
2022-11-22T19:26:20.585Z,34.87
2022-11-22T19:28:48.200Z,38.60
2022-11-22T19:31:15.478Z,38.90
2022-11-22T19:33:42.617Z,40.37
2022-11-22T19:36:16.262Z,35.03
2022-11-22T19:38:42.959Z,39.77
2022-11-22T19:41:09.958Z,38.87
2022-11-22T19:43:36.874Z,40.67
2022-11-22T19:46:03.520Z,35.40
2022-11-22T19:48:30.029Z,36.17
2022-11-22T19:50:56.644Z,41.93
2022-11-22T19:53:23.346Z,37.13
2022-11-22T19:55:50.282Z,44.10
2022-11-22T19:58:18.899Z,38.33
2022-11-22T20:00:46.086Z,39.00
2022-11-22T20:03:15.720Z,42.37
2022-11-22T20:05:42.193Z,38.40
2022-11-22T20:08:08.764Z,38.63
2022-11-22T20:10:35.527Z,36.23
2022-11-22T20:13:02.894Z,36.30
2022-11-22T20:15:30.096Z,40.83
2022-11-22T20:17:56.698Z,43.37
2022-11-22T20:20:23.457Z,38.10
2022-11-22T20:22:50.031Z,41.60
2022-11-22T20:25:17.269Z,45.17
2022-11-22T20:27:43.783Z,42.10
2022-11-22T20:30:11.434Z,46.70
2022-11-22T20:32:39.930Z,50.17
2022-11-22T20:35:06.792Z,51.07
2022-11-22T20:37:35.563Z,49.57
2022-11-22T20:40:02.009Z,52.30
2022-11-22T20:42:35.665Z,50.63
2022-11-22T20:45:05.125Z,46.20
2022-11-22T20:47:31.866Z,45.70
2022-11-22T20:49:58.443Z,46.63
2022-11-22T20:52:24.923Z,45.17
2022-11-22T20:54:51.439Z,49.23
2022-11-22T20:57:17.911Z,47.23
2022-11-22T20:59:44.468Z,50.80
2022-11-22T21:02:11.208Z,47.07
2022-11-22T21:04:37.809Z,51.97
2022-11-22T21:07:04.299Z,53.83
2022-11-22T21:09:30.980Z,52.43
2022-11-22T21:11:57.447Z,48.73
2022-11-22T21:14:23.985Z,46.10
2022-11-22T21:16:50.411Z,52.80
2022-11-22T21:19:17.875Z,53.83
2022-11-22T21:21:44.319Z,59.27
2022-11-22T21:24:10.993Z,56.73
2022-11-22T21:26:37.434Z,60.57
2022-11-22T21:29:04.937Z,58.20
2022-11-22T21:31:31.385Z,60.97
2022-11-22T21:33:57.914Z,56.77
2022-11-22T21:36:24.394Z,58.87
2022-11-22T21:38:51.002Z,61.43
2022-11-22T21:44:07.261Z,61.40
2022-11-22T21:46:33.676Z,57.20
2022-11-22T21:49:00.125Z,58.33
2022-11-22T21:51:26.788Z,54.30
2022-11-22T21:53:57.598Z,59.90
2022-11-22T21:56:24.068Z,55.20
2022-11-22T21:58:50.507Z,51.07
2022-11-22T22:01:17.028Z,55.37
2022-11-22T22:03:43.478Z,57.90
2022-11-22T22:06:10.010Z,54.07
2022-11-22T22:08:36.517Z,57.07
2022-11-22T22:11:05.363Z,56.67
2022-11-22T22:13:32.343Z,55.63
2022-11-22T22:15:59.416Z,55.47
2022-11-22T22:18:44.311Z,62.80
2022-11-22T22:21:11.502Z,50.57
2022-11-22T22:23:38.554Z,56.80
2022-11-22T22:26:05.759Z,62.93
2022-11-22T22:28:32.992Z,55.27
2022-11-22T22:31:02.480Z,63.17
2022-11-22T22:33:28.935Z,61.37
2022-11-22T22:35:57.126Z,58.40
2022-11-22T22:38:23.610Z,58.77
2022-11-22T22:40:54.157Z,63.20
2022-11-22T22:43:20.998Z,57.67
2022-11-22T22:45:47.420Z,61.63
2022-11-22T22:48:13.816Z,67.87
2022-11-22T22:50:40.341Z,58.60
2022-11-22T22:53:06.823Z,61.73
2022-11-22T22:55:33.260Z,59.63
2022-11-22T22:58:00.142Z,68.40
2022-11-22T23:00:26.577Z,63.37
2022-11-22T23:02:53.292Z,72.87
2022-11-22T23:05:19.855Z,70.30
2022-11-22T23:07:46.359Z,67.20
2022-11-22T23:10:12.878Z,70.60
2022-11-22T23:12:39.484Z,73.03
2022-11-22T23:15:06.293Z,67.33
2022-11-22T23:17:32.783Z,71.27
2022-11-22T23:19:59.228Z,69.77
2022-11-22T23:22:26.162Z,65.40
2022-11-22T23:24:52.705Z,63.17
2022-11-22T23:27:19.209Z,67.73
2022-11-22T23:29:45.614Z,67.20
2022-11-22T23:32:12.087Z,65.20
2022-11-22T23:34:38.501Z,66.77
2022-11-22T23:37:04.987Z,70.37
2022-11-22T23:39:31.641Z,69.80
2022-11-22T23:41:58.363Z,62.30
2022-11-22T23:44:24.770Z,64.00
2022-11-22T23:46:51.236Z,63.50
2022-11-22T23:49:17.684Z,67.87
2022-11-22T23:51:44.208Z,71.03
2022-11-22T23:54:10.662Z,61.47
2022-11-22T23:56:37.272Z,61.17
2022-11-22T23:59:05.070Z,68.40
